Weather History for KEDE - March, 2013

Change the Weather History Date:

Saturday, March 9, 2013

  Actual Average Record
Temperature  
Mean Temperature 47 °F -  
Max Temperature 60 °F 61 °F 84 °F (2009)
Min Temperature 32 °F 39 °F 22 °F (1943)
Degree Days  
Heating Degree Days 18    
Moisture  
Dew Point 28 °F    
Average Humidity 54    
Maximum Humidity 80    
Minimum Humidity 25    
Precipitation  
Precipitation 0.00 in - - ()
Sea Level Pressure  
Sea Level Pressure 30.25 in    
Wind  
Wind Speed 9 mph (North)    
Max Wind Speed 16 mph    
Max Gust Speed 22 mph    
Visibility 10 miles    
Events      
Averages and records for this station are not official NWS values.
T = Trace of Precipitation, MM = Missing Value Source: NWS Daily Summary

Daily Weather History Graph

Daily Weather History Graph

Search for Another Location

Airport or City:

Trip Planner

Search our weather history database for the weather conditions in past years. The results will help you decide how hot, cold, wet, or windy it might be!

Date:

Astronomy

Mar. 09, 2013 Rise Set
Actual Time 6:25 AM EST 6:08 PM EST
Civil Twilight 5:59 AM EST 6:34 PM EST
Nautical Twilight 5:30 AM EST 7:04 PM EST
Astronomical Twilight 5:00 AM EST 7:33 PM EST
Moon 4:44 AM EST (3/9) 4:10 PM EST (3/9)
Length of Visible Light 12h 34m
Length of Day
11h 43m
Waning Crescent, 5% of the Moon is Illuminated
Mar 9
Waning Crescent
Mar 11
New
Mar 19
First Quarter
Mar 27
Full
Apr 3
Last Quarter

Hourly Weather History & Observations

Time (EST) Temp. Windchill Dew Point Humidity Pressure Visibility Wind Dir Wind Speed Gust Speed Precip Events Conditions
12:15 AM 41.0 °F 34.7 °F 30.7 °F 67% 30.20 in 10.0 mi NNW 10.4 mph - N/A   Clear
12:35 AM 41.2 °F 36.0 °F 30.7 °F 66% 30.20 in 10.0 mi NNW 8.1 mph - N/A   Clear
12:55 AM 40.8 °F 34.5 °F 30.6 °F 67% 30.21 in 10.0 mi NNW 10.4 mph - N/A   Clear
1:15 AM 40.6 °F 35.4 °F 30.7 °F 68% 30.21 in 10.0 mi NNW 8.1 mph - N/A   Clear
1:35 AM 40.8 °F 34.5 °F 30.7 °F 67% 30.21 in 10.0 mi NNW 10.4 mph - N/A   Clear
1:55 AM 40.5 °F 34.1 °F 30.7 °F 68% 30.21 in 10.0 mi NNW 10.4 mph - N/A   Clear
2:15 AM 40.5 °F 34.1 °F 30.6 °F 68% 30.20 in 10.0 mi NNW 10.4 mph - N/A   Clear
2:35 AM 40.3 °F 34.4 °F 30.2 °F 67% 30.20 in 10.0 mi NNW 9.2 mph - N/A   Clear
2:55 AM 39.9 °F 33.9 °F 30.2 °F 68% 30.20 in 10.0 mi NNW 9.2 mph - N/A   Clear
3:15 AM 39.9 °F 33.4 °F 30.2 °F 68% 30.20 in 10.0 mi NNW 10.4 mph 17.3 mph N/A   Clear
3:35 AM 39.4 °F 32.7 °F 30.2 °F 70% 30.20 in 10.0 mi NNW 10.4 mph - N/A   Clear
3:55 AM 39.6 °F 32.5 °F 30.2 °F 69% 30.21 in 10.0 mi NNW 11.5 mph - N/A   Clear
4:15 AM 39.2 °F 32.0 °F 30.0 °F 70% 30.21 in 10.0 mi NNW 11.5 mph - N/A   Clear
4:35 AM 39.2 °F 32.0 °F 30.0 °F 70% 30.22 in 10.0 mi NNW 11.5 mph - N/A   Clear
4:55 AM 38.7 °F 32.4 °F 30.0 °F 71% 30.22 in 10.0 mi NNW 9.2 mph - N/A   Clear
5:15 AM 37.9 °F 32.1 °F 30.0 °F 73% 30.23 in 10.0 mi North 8.1 mph - N/A   Clear
5:35 AM 38.1 °F 32.3 °F 29.8 °F 72% 30.24 in 10.0 mi NNW 8.1 mph - N/A   Clear
5:55 AM 37.9 °F 31.5 °F 29.7 °F 72% 30.24 in 10.0 mi NNW 9.2 mph - N/A   Clear
6:15 AM 37.6 °F 31.0 °F 29.3 °F 72% 30.25 in 10.0 mi North 9.2 mph - N/A   Clear
6:35 AM 37.6 °F 31.0 °F 29.3 °F 72% 30.25 in 10.0 mi NNW 9.2 mph - N/A   Clear
6:55 AM 37.6 °F 31.6 °F 29.7 °F 73% 30.25 in 10.0 mi North 8.1 mph - N/A   Clear
7:15 AM 38.7 °F 31.8 °F 30.0 °F 71% 30.26 in 10.0 mi NNW 10.4 mph - N/A   Clear
7:35 AM 40.1 °F 33.6 °F 30.0 °F 67% 30.27 in 10.0 mi North 10.4 mph - N/A   Clear
7:55 AM 41.4 °F 35.2 °F 30.2 °F 65% 30.28 in 10.0 mi North 10.4 mph 16.1 mph N/A   Clear
8:15 AM 42.3 °F 36.3 °F 29.7 °F 61% 30.28 in 10.0 mi North 10.4 mph 17.3 mph N/A   Clear
8:35 AM 43.7 °F 37.3 °F 29.8 °F 58% 30.27 in 10.0 mi North 12.7 mph 19.6 mph N/A   Clear
8:55 AM 44.6 °F 38.4 °F 29.3 °F 55% 30.28 in 10.0 mi North 12.7 mph - N/A   Clear
9:15 AM 46.0 °F 41.0 °F 29.7 °F 53% 30.28 in 10.0 mi North 10.4 mph - N/A   Clear
9:35 AM 47.3 °F - 29.3 °F 50% 30.28 in 10.0 mi North 11.5 mph - N/A   Clear
9:55 AM 48.7 °F - 30.6 °F 50% 30.28 in 10.0 mi NNW 11.5 mph - N/A   Clear
10:15 AM 49.8 °F - 30.0 °F 47% 30.28 in 10.0 mi North 11.5 mph - N/A   Clear
10:35 AM 51.3 °F - 30.7 °F 45% 30.28 in 10.0 mi North 10.4 mph 17.3 mph N/A   Clear
10:55 AM 52.0 °F - 30.0 °F 43% 30.28 in 10.0 mi NNW 13.8 mph 17.3 mph N/A   Clear
11:15 AM 53.4 °F - 29.7 °F 40% 30.28 in 10.0 mi NNW 11.5 mph 16.1 mph N/A   Clear
11:35 AM 54.5 °F - 29.5 °F 38% 30.28 in 10.0 mi North 11.5 mph 18.4 mph N/A   Clear
11:55 AM 54.7 °F - 28.4 °F 36% 30.27 in 10.0 mi North 12.7 mph 18.4 mph N/A   Clear
12:15 PM 56.5 °F - 28.4 °F 34% 30.27 in 10.0 mi North 11.5 mph 18.4 mph N/A   Clear
12:35 PM 56.7 °F - 27.5 °F 33% 30.26 in 10.0 mi North 13.8 mph 21.9 mph N/A   Clear
12:55 PM 57.2 °F - 27.1 °F 32% 30.26 in 10.0 mi NNW 16.1 mph 19.6 mph N/A   Clear
1:15 PM 57.9 °F - 27.1 °F 31% 30.25 in 10.0 mi North 13.8 mph 17.3 mph N/A   Clear
1:35 PM 58.3 °F - 26.8 °F 30% 30.25 in 10.0 mi NNW 10.4 mph - N/A   Clear
1:55 PM 58.8 °F - 26.4 °F 29% 30.25 in 10.0 mi North 11.5 mph 17.3 mph N/A   Clear
2:15 PM 59.0 °F - 25.9 °F 28% 30.24 in 10.0 mi North 9.2 mph 16.1 mph N/A   Clear
2:35 PM 59.0 °F - 24.6 °F 27% 30.24 in 10.0 mi NNE 9.2 mph - N/A   Clear
2:55 PM 59.7 °F - 24.1 °F 26% 30.24 in 10.0 mi NNE 8.1 mph 17.3 mph N/A   Clear
3:15 PM 60.4 °F - 24.4 °F 25% 30.24 in 10.0 mi NNE 5.8 mph - N/A   Clear
3:35 PM 59.9 °F - 23.7 °F 25% 30.24 in 10.0 mi NE 9.2 mph - N/A   Clear
3:55 PM 60.3 °F - 24.3 °F 25% 30.24 in 10.0 mi NNE 5.8 mph - N/A   Clear
4:15 PM 59.9 °F - 23.5 °F 25% 30.24 in 10.0 mi North 9.2 mph - N/A   Clear
4:35 PM 59.7 °F - 23.9 °F 25% 30.24 in 10.0 mi North 8.1 mph - N/A   Clear
4:55 PM 59.2 °F - 23.9 °F 26% 30.24 in 10.0 mi North 9.2 mph - N/A   Clear
5:15 PM 58.3 °F - 24.1 °F 27% 30.24 in 10.0 mi North 8.1 mph - N/A   Clear
5:35 PM 56.8 °F - 25.3 °F 30% 30.24 in 10.0 mi North 6.9 mph - N/A   Clear
5:55 PM 55.2 °F - 25.5 °F 32% 30.25 in 10.0 mi North 4.6 mph - N/A   Clear
6:15 PM 54.7 °F - 25.9 °F 33% 30.25 in 10.0 mi Calm Calm - N/A   Clear
6:35 PM 49.6 °F - 29.3 °F 46% 30.26 in 10.0 mi Calm Calm - N/A   Clear
6:55 PM 46.9 °F - 30.2 °F 52% 30.26 in 10.0 mi Calm Calm - N/A   Clear
7:15 PM 46.4 °F - 29.8 °F 53% 30.27 in 10.0 mi Calm Calm - N/A   Clear
7:35 PM 44.2 °F - 30.6 °F 59% 30.27 in 10.0 mi Calm Calm - N/A   Clear
7:55 PM 43.2 °F - 27.0 °F 53% 30.27 in 10.0 mi Calm Calm - N/A   Clear
8:15 PM 42.8 °F - 29.5 °F 59% 30.28 in 10.0 mi Calm Calm - N/A   Clear
8:35 PM 42.3 °F - 28.0 °F 57% 30.28 in 10.0 mi Calm Calm - N/A   Clear
8:55 PM 40.1 °F - 27.0 °F 59% 30.30 in 10.0 mi Calm Calm - N/A   Clear
9:15 PM 39.0 °F - 26.2 °F 60% 30.30 in 10.0 mi Calm Calm - N/A   Clear
9:35 PM 39.2 °F - 25.2 °F 57% 30.31 in 10.0 mi Calm Calm - N/A   Clear
9:55 PM 37.9 °F - 30.2 °F 74% 30.31 in 10.0 mi Calm Calm - N/A   Clear
10:15 PM 36.1 °F - 26.4 °F 68% 30.31 in 10.0 mi Calm Calm - N/A   Clear
10:35 PM 36.3 °F - 27.7 °F 71% 30.31 in 10.0 mi Calm Calm - N/A   Clear
10:55 PM 36.1 °F - 28.2 °F 73% 30.31 in 10.0 mi Calm Calm - N/A   Clear
11:15 PM 35.2 °F - 28.6 °F 77% 30.31 in 10.0 mi Calm Calm - N/A   Clear
11:35 PM 34.7 °F - 28.2 °F 77% 30.31 in 10.0 mi Calm Calm - N/A   Clear
11:55 PM 32.0 °F - 26.6 °F 80% 30.31 in 10.0 mi Calm Calm - N/A   Clear